Time;durP1;ratioP1;P1;durP2;ratioP2;P2;SDS_P1;SDS_P2;PMS_P1;PMS_P2;Temp;Humidity;BMP_temperature;BMP_pressure;BME280_temperature;BME280_humidity;BME280_pressure;Samples;Min_cycle;Max_cycle;Signal;HPM_P1;HPM_P2
2022/09/07 00:00:41;;;;;;;0.40;0.40;;;18.90;99.90;;;;;;5049036;28;20052;-80
2022/09/07 00:03:08;;;;;;;0.40;0.40;;;18.80;99.90;;;;;;5043721;28;20134;-80
2022/09/07 00:05:40;;;;;;;0.40;0.40;;;18.80;99.90;;;;;;5042771;28;20077;-80
2022/09/07 00:08:05;;;;;;;0.40;0.40;;;18.70;99.90;;;;;;5036667;28;20471;-80
2022/09/07 00:10:31;;;;;;;0.40;0.40;;;18.80;99.90;;;;;;5042650;28;21253;-80
2022/09/07 00:12:57;;;;;;;0.40;0.40;;;18.80;99.90;;;;;;5045827;28;20134;-81
2022/09/07 00:15:22;;;;;;;0.40;0.40;;;18.80;99.90;;;;;;5018799;28;20055;-81
2022/09/07 00:17:48;;;;;;;0.40;0.40;;;18.80;99.90;;;;;;5059451;28;20047;-81
2022/09/07 00:20:14;;;;;;;0.40;0.40;;;18.90;99.90;;;;;;5042853;28;20925;-80
2022/09/07 00:22:40;;;;;;;0.40;0.40;;;18.90;99.90;;;;;;5050619;28;20110;-80
2022/09/07 00:25:06;;;;;;;0.40;0.40;;;18.90;99.90;;;;;;5040511;28;20229;-81
2022/09/07 00:27:31;;;;;;;0.40;0.40;;;18.90;99.90;;;;;;5042509;28;20048;-81
2022/09/07 00:29:57;;;;;;;0.40;0.40;;;18.80;99.90;;;;;;5041432;28;20469;-81
2022/09/07 00:32:23;;;;;;;0.38;0.38;;;18.80;99.90;;;;;;5059790;28;20051;-81
2022/09/07 00:34:49;;;;;;;0.40;0.40;;;18.70;99.90;;;;;;5040410;28;20439;-80
2022/09/07 00:37:16;;;;;;;0.40;0.40;;;18.80;99.90;;;;;;5041881;28;20112;-80
2022/09/07 00:39:41;;;;;;;0.40;0.40;;;18.70;99.90;;;;;;5045805;28;20043;-81
2022/09/07 00:42:07;;;;;;;0.40;0.40;;;18.70;99.90;;;;;;5038980;28;20275;-82
2022/09/07 00:44:42;;;;;;;0.40;0.40;;;18.80;99.90;;;;;;5040956;28;20039;-81
2022/09/07 00:47:30;;;;;;;0.40;0.40;;;18.70;99.90;;;;;;5040238;28;20140;-82
2022/09/07 00:50:01;;;;;;;0.40;0.40;;;18.50;99.90;;;;;;5045126;28;20370;-85
2022/09/07 00:52:29;;;;;;;0.40;0.40;;;18.40;99.90;;;;;;5027704;28;20051;-86
2022/09/07 00:55:00;;;;;;;0.40;0.40;;;18.40;99.90;;;;;;5030140;28;20055;-88
2022/09/07 00:57:30;;;;;;;0.40;0.40;;;18.40;99.90;;;;;;5026835;28;20109;-85
2022/09/07 00:59:56;;;;;;;0.30;0.30;;;18.30;99.90;;;;;;5044790;28;20628;-82
2022/09/07 01:02:23;;;;;;;0.35;0.35;;;18.30;99.90;;;;;;5043854;28;20094;-82
2022/09/07 01:04:55;;;;;;;0.40;0.40;;;18.20;99.90;;;;;;5044044;28;20054;-83
2022/09/07 01:07:22;;;;;;;0.40;0.40;;;18.20;99.90;;;;;;5031512;28;20156;-84
2022/09/07 01:09:49;;;;;;;0.40;0.40;;;18.30;99.90;;;;;;5049430;28;20052;-83
2022/09/07 01:12:15;;;;;;;0.38;0.38;;;18.30;99.90;;;;;;5054928;28;21031;-84
2022/09/07 01:14:45;;;;;;;0.40;0.40;;;18.20;99.90;;;;;;5045002;28;20055;-86
2022/09/07 01:17:18;;;;;;;0.40;0.40;;;18.20;99.90;;;;;;5032926;28;20044;-88
2022/09/07 01:20:27;;;;;;;0.40;0.40;;;18.30;99.90;;;;;;5046612;28;20516;-87
2022/09/07 01:23:11;;;;;;;0.40;0.40;;;18.30;99.90;;;;;;5057006;28;20142;-89
2022/09/07 01:26:05;;;;;;;0.40;0.40;;;18.10;99.90;;;;;;5028740;28;20043;-87
2022/09/07 01:28:35;;;;;;;0.40;0.40;;;18.20;99.90;;;;;;5039975;28;20146;-88
2022/09/07 01:31:29;;;;;;;0.40;0.40;;;18.20;99.90;;;;;;5037198;28;20518;-89
2022/09/07 01:33:57;;;;;;;0.40;0.40;;;18.30;99.90;;;;;;5030037;28;20054;-91
2022/09/07 01:36:38;;;;;;;0.40;0.40;;;18.10;99.90;;;;;;5038234;28;20043;-88
2022/09/07 01:39:05;;;;;;;0.40;0.40;;;18.00;99.90;;;;;;5033373;28;20059;-87
2022/09/07 01:41:39;;;;;;;0.40;0.40;;;18.00;99.90;;;;;;5012263;28;20777;-88
2022/09/07 01:44:37;;;;;;;0.40;0.40;;;17.90;99.90;;;;;;5034552;28;20116;-90
2022/09/07 01:47:16;;;;;;;0.40;0.40;;;18.00;99.90;;;;;;5037230;28;20052;-89
2022/09/07 01:49:50;;;;;;;0.40;0.40;;;17.90;99.90;;;;;;5019981;28;20596;-88
2022/09/07 01:52:39;;;;;;;0.40;0.40;;;18.00;99.90;;;;;;5017867;28;20044;-88
2022/09/07 01:55:21;;;;;;;0.40;0.40;;;17.90;99.90;;;;;;5008607;28;20070;-90
2022/09/07 01:58:02;;;;;;;0.40;0.40;;;17.90;99.90;;;;;;5032148;28;20056;-90
2022/09/07 02:00:29;;;;;;;0.40;0.40;;;17.80;99.90;;;;;;5022916;28;20040;-89
2022/09/07 02:03:07;;;;;;;0.40;0.40;;;17.90;99.90;;;;;;5005854;28;20047;-92
2022/09/07 02:05:41;;;;;;;0.40;0.40;;;17.80;99.90;;;;;;5037511;28;20523;-91
2022/09/07 02:08:18;;;;;;;0.40;0.40;;;17.80;99.90;;;;;;5036068;28;20771;-91
2022/09/07 02:11:00;;;;;;;0.40;0.40;;;17.60;99.90;;;;;;5043109;28;20101;-93
2022/09/07 02:13:34;;;;;;;0.40;0.40;;;17.60;99.90;;;;;;5028369;28;20121;-94
2022/09/07 02:16:05;;;;;;;0.40;0.40;;;17.70;99.90;;;;;;5046408;28;20184;-93
2022/09/07 02:18:46;;;;;;;2.10;2.03;;;17.60;99.90;;;;;;5045269;28;20043;-94
2022/09/07 02:21:18;;;;;;;0.40;0.40;;;17.70;99.90;;;;;;5044153;28;20043;-93
2022/09/07 02:23:50;;;;;;;0.40;0.40;;;17.70;99.90;;;;;;5026624;28;20086;-91
2022/09/07 02:26:20;;;;;;;0.40;0.40;;;17.70;99.90;;;;;;5042958;28;20166;-93
2022/09/07 02:28:46;;;;;;;0.40;0.40;;;17.60;99.90;;;;;;5043380;28;20059;-92
2022/09/07 02:31:13;;;;;;;0.40;0.40;;;17.50;99.90;;;;;;5008592;28;20048;-91
2022/09/07 02:33:40;;;;;;;0.50;0.50;;;17.60;99.90;;;;;;5024044;28;20498;-90
2022/09/07 02:36:10;;;;;;;0.40;0.40;;;17.60;99.90;;;;;;5026478;28;20048;-92
2022/09/07 02:38:36;;;;;;;0.40;0.40;;;17.70;99.90;;;;;;5038942;28;20057;-93
2022/09/07 02:41:03;;;;;;;0.40;0.40;;;17.60;99.90;;;;;;5046939;28;20060;-92
2022/09/07 02:43:30;;;;;;;0.40;0.40;;;17.70;99.90;;;;;;5058549;28;20574;-92
2022/09/07 02:46:02;;;;;;;0.47;0.47;;;17.70;99.90;;;;;;5028234;28;20093;-92
2022/09/07 02:48:58;;;;;;;0.40;0.40;;;17.60;99.90;;;;;;5041106;28;20881;-92
2022/09/07 02:51:44;;;;;;;0.40;0.40;;;17.70;99.90;;;;;;5043787;28;20047;-92
2022/09/07 02:54:28;;;;;;;0.40;0.40;;;17.70;99.90;;;;;;5043920;28;20937;-89
2022/09/07 02:57:29;;;;;;;0.40;0.40;;;17.50;99.90;;;;;;5047670;28;20075;-91
2022/09/07 02:59:55;;;;;;;0.40;0.40;;;17.60;99.90;;;;;;5034822;28;20200;-90
2022/09/07 03:03:02;;;;;;;0.40;0.40;;;17.50;99.90;;;;;;5048407;28;20924;-90
2022/09/07 03:05:52;;;;;;;0.43;0.43;;;17.50;99.90;;;;;;5001513;28;20051;-92
2022/09/07 03:08:27;;;;;;;0.40;0.40;;;17.40;99.90;;;;;;5057161;28;20650;-92
2022/09/07 03:10:53;;;;;;;0.40;0.40;;;17.50;99.90;;;;;;5035914;28;20787;-91
2022/09/07 03:13:24;;;;;;;0.40;0.40;;;17.50;99.90;;;;;;5037531;28;20050;-88
2022/09/07 03:15:51;;;;;;;0.40;0.40;;;17.40;99.90;;;;;;5038744;28;20054;-92
2022/09/07 03:18:21;;;;;;;0.40;0.40;;;17.40;99.90;;;;;;5040855;28;20071;-93
2022/09/07 03:20:50;;;;;;;0.40;0.40;;;17.50;99.90;;;;;;5058691;28;20059;-92
2022/09/07 03:23:16;;;;;;;0.40;0.40;;;17.50;99.90;;;;;;5041702;28;20040;-91
2022/09/07 03:25:42;;;;;;;0.40;0.40;;;17.50;99.90;;;;;;5021312;28;20036;-88
2022/09/07 03:28:08;;;;;;;0.40;0.40;;;17.40;99.90;;;;;;5039369;28;20595;-89
2022/09/07 03:30:40;;;;;;;0.40;0.40;;;17.50;99.90;;;;;;5040897;28;20846;-92
2022/09/07 03:33:06;;;;;;;0.40;0.40;;;17.50;99.90;;;;;;5036655;28;20044;-92
2022/09/07 03:35:31;;;;;;;0.40;0.40;;;17.50;99.90;;;;;;5011143;28;20047;-92
2022/09/07 03:37:57;;;;;;;0.40;0.40;;;17.50;99.90;;;;;;5026017;28;20067;-88
2022/09/07 03:40:24;;;;;;;0.40;0.40;;;17.60;99.90;;;;;;5028405;28;20039;-87
2022/09/07 03:42:49;;;;;;;0.40;0.40;;;17.50;99.90;;;;;;5034552;28;20039;-88
2022/09/07 03:45:16;;;;;;;0.63;0.63;;;17.50;99.90;;;;;;5040925;28;20163;-88
2022/09/07 03:47:42;;;;;;;0.40;0.40;;;17.40;99.90;;;;;;5037201;28;20054;-89
2022/09/07 03:50:08;;;;;;;0.40;0.40;;;17.40;99.90;;;;;;5034914;28;20031;-87
2022/09/07 03:52:35;;;;;;;0.40;0.40;;;17.40;99.90;;;;;;5043264;28;20105;-88
2022/09/07 03:55:00;;;;;;;0.40;0.40;;;17.30;99.90;;;;;;5045617;28;20412;-88
2022/09/07 03:57:26;;;;;;;0.40;0.40;;;17.20;99.90;;;;;;5048946;28;20051;-87
2022/09/07 03:59:52;;;;;;;0.40;0.40;;;17.20;99.90;;;;;;5051313;28;20077;-92
2022/09/07 04:02:18;;;;;;;0.40;0.40;;;17.20;99.90;;;;;;5068087;28;20047;-90
2022/09/07 04:04:47;;;;;;;0.40;0.40;;;17.20;99.90;;;;;;5038489;28;20753;-86
2022/09/07 04:07:13;;;;;;;0.40;0.40;;;17.10;99.90;;;;;;5040524;28;20082;-86
2022/09/07 04:09:39;;;;;;;0.40;0.40;;;17.00;99.90;;;;;;5062141;28;20078;-89
2022/09/07 04:12:05;;;;;;;0.40;0.40;;;17.00;99.90;;;;;;5045314;28;20160;-87
2022/09/07 04:14:30;;;;;;;0.40;0.40;;;17.00;99.90;;;;;;5046655;28;20043;-88
2022/09/07 04:16:56;;;;;;;0.40;0.40;;;16.90;99.90;;;;;;5048328;28;20040;-89
2022/09/07 04:19:22;;;;;;;0.40;0.40;;;17.00;99.90;;;;;;5050321;28;20073;-89
2022/09/07 04:21:48;;;;;;;0.40;0.40;;;17.00;99.90;;;;;;5053750;28;20044;-92
2022/09/07 04:24:15;;;;;;;0.40;0.40;;;17.00;99.90;;;;;;5048822;28;20040;-89
2022/09/07 04:26:44;;;;;;;0.40;0.40;;;16.90;99.90;;;;;;5065007;28;20044;-86
2022/09/07 04:29:11;;;;;;;0.40;0.40;;;17.00;99.90;;;;;;5048913;28;20127;-91
2022/09/07 04:31:38;;;;;;;0.40;0.40;;;17.00;99.90;;;;;;5046542;28;20051;-87
2022/09/07 04:34:05;;;;;;;0.40;0.40;;;16.90;99.90;;;;;;5049522;28;20136;-86
2022/09/07 04:36:31;;;;;;;0.40;0.40;;;17.00;99.90;;;;;;5074050;28;20050;-86
2022/09/07 04:38:59;;;;;;;0.40;0.40;;;17.00;99.90;;;;;;5029091;28;20802;-87
2022/09/07 04:41:27;;;;;;;0.40;0.40;;;16.90;99.90;;;;;;5027936;28;20092;-87
2022/09/07 04:43:55;;;;;;;0.40;0.40;;;16.90;99.90;;;;;;5043772;28;20044;-89
2022/09/07 04:46:24;;;;;;;0.40;0.40;;;16.90;99.90;;;;;;5044925;28;20053;-86
2022/09/07 04:48:51;;;;;;;0.40;0.40;;;16.90;99.90;;;;;;5068991;28;20066;-87
2022/09/07 04:51:18;;;;;;;0.40;0.40;;;16.90;99.90;;;;;;5048020;28;20044;-89
2022/09/07 04:53:47;;;;;;;0.47;0.47;;;17.10;99.90;;;;;;5047869;28;21106;-85
2022/09/07 04:56:13;;;;;;;0.30;0.30;;;17.00;99.90;;;;;;5036475;28;20052;-87
2022/09/07 04:58:39;;;;;;;0.38;0.38;;;16.90;99.90;;;;;;5008441;28;20055;-87
2022/09/07 05:01:06;;;;;;;0.40;0.40;;;17.00;99.90;;;;;;5045145;28;20050;-86
2022/09/07 05:03:35;;;;;;;0.40;0.40;;;16.90;99.90;;;;;;5033193;28;20757;-88
2022/09/07 05:06:02;;;;;;;0.38;0.38;;;16.90;99.90;;;;;;5042037;28;20769;-85
2022/09/07 05:08:28;;;;;;;0.40;0.40;;;16.90;99.90;;;;;;5040464;28;20047;-84
2022/09/07 05:10:56;;;;;;;0.40;0.40;;;16.90;99.90;;;;;;5024558;28;20043;-86
2022/09/07 05:13:22;;;;;;;0.40;0.40;;;16.90;99.90;;;;;;5010647;28;20155;-84
2022/09/07 05:15:48;;;;;;;0.40;0.40;;;17.00;99.90;;;;;;5063601;28;20036;-85
2022/09/07 05:18:13;;;;;;;0.40;0.40;;;16.90;99.90;;;;;;5039486;28;20685;-83
2022/09/07 05:20:40;;;;;;;0.40;0.40;;;17.10;99.90;;;;;;5021515;28;20044;-86
2022/09/07 05:23:06;;;;;;;0.40;0.40;;;17.00;99.90;;;;;;5036983;28;20047;-85
2022/09/07 05:25:32;;;;;;;0.40;0.40;;;16.90;99.90;;;;;;5035697;28;20043;-86
2022/09/07 05:27:57;;;;;;;0.40;0.40;;;17.00;99.90;;;;;;5053040;28;20357;-86
2022/09/07 05:30:26;;;;;;;0.40;0.40;;;17.00;99.90;;;;;;5054117;28;20054;-87
2022/09/07 05:32:51;;;;;;;0.45;0.45;;;17.10;99.90;;;;;;5054321;28;20073;-87
2022/09/07 05:35:18;;;;;;;0.40;0.40;;;17.00;99.90;;;;;;5050624;28;20040;-87
2022/09/07 05:37:49;;;;;;;0.40;0.40;;;17.10;99.90;;;;;;5027145;28;20436;-85
2022/09/07 05:40:15;;;;;;;0.40;0.40;;;17.10;99.90;;;;;;5047023;28;20044;-85
2022/09/07 05:42:41;;;;;;;0.40;0.40;;;17.00;99.90;;;;;;5054034;28;20100;-85
2022/09/07 05:45:09;;;;;;;0.40;0.40;;;17.20;99.90;;;;;;5036190;28;20594;-83
2022/09/07 05:47:36;;;;;;;0.40;0.40;;;17.20;99.90;;;;;;5050302;28;20058;-87
2022/09/07 05:50:07;;;;;;;0.40;0.40;;;17.20;99.90;;;;;;5031277;28;20381;-87
2022/09/07 05:52:34;;;;;;;0.40;0.40;;;17.20;99.90;;;;;;5044399;28;20050;-88
2022/09/07 05:55:00;;;;;;;0.40;0.40;;;17.20;99.90;;;;;;5063954;28;20058;-85
2022/09/07 05:57:25;;;;;;;0.40;0.40;;;17.20;99.90;;;;;;5054857;28;20043;-87
2022/09/07 05:59:51;;;;;;;0.40;0.40;;;17.60;99.90;;;;;;5056230;28;20496;-85
2022/09/07 06:02:17;;;;;;;0.40;0.40;;;17.60;99.90;;;;;;5028836;28;20039;-86
2022/09/07 06:04:43;;;;;;;0.40;0.40;;;18.00;99.90;;;;;;5050826;28;20051;-85
2022/09/07 06:07:12;;;;;;;0.40;0.40;;;18.10;99.90;;;;;;5067970;28;20059;-86
2022/09/07 06:09:39;;;;;;;0.40;0.40;;;18.20;99.90;;;;;;5070408;28;20071;-86
2022/09/07 06:12:05;;;;;;;0.40;0.40;;;18.20;99.90;;;;;;5066094;28;20151;-86
2022/09/07 06:14:32;;;;;;;0.40;0.40;;;18.10;99.90;;;;;;5070534;28;20126;-92
2022/09/07 06:16:57;;;;;;;0.40;0.40;;;18.40;99.90;;;;;;5049558;28;20048;-88
2022/09/07 06:19:23;;;;;;;0.40;0.40;;;18.40;99.90;;;;;;5034446;28;20043;-93
2022/09/07 06:21:49;;;;;;;0.40;0.40;;;18.40;99.90;;;;;;5045914;28;20040;-86
2022/09/07 06:24:14;;;;;;;0.30;0.30;;;18.30;99.90;;;;;;5089918;28;20061;-87
2022/09/07 06:26:40;;;;;;;0.40;0.40;;;18.20;99.90;;;;;;5038400;28;20804;-84
2022/09/07 06:29:08;;;;;;;0.40;0.40;;;18.20;99.90;;;;;;5087646;28;20066;-88
2022/09/07 06:31:33;;;;;;;0.30;0.30;;;18.20;99.90;;;;;;5043248;28;20047;-84
2022/09/07 06:33:59;;;;;;;0.40;0.40;;;18.20;99.90;;;;;;5068714;28;20499;-87
2022/09/07 06:36:27;;;;;;;0.30;0.30;;;18.10;99.90;;;;;;5034965;28;20043;-87
2022/09/07 06:38:54;;;;;;;0.40;0.40;;;18.10;99.90;;;;;;5072544;28;20481;-84
2022/09/07 06:41:27;;;;;;;0.40;0.40;;;18.10;99.90;;;;;;5066483;28;20052;-86
2022/09/07 06:43:54;;;;;;;0.30;0.30;;;18.10;99.90;;;;;;5050757;28;20071;-88
2022/09/07 06:46:20;;;;;;;0.35;0.35;;;18.10;99.90;;;;;;5063638;28;20400;-87
2022/09/07 06:48:45;;;;;;;0.40;0.40;;;18.10;99.90;;;;;;5065649;28;20052;-86
2022/09/07 06:51:14;;;;;;;0.30;0.30;;;18.10;99.90;;;;;;5034386;28;20043;-85
2022/09/07 06:53:40;;;;;;;0.30;0.30;;;18.20;99.90;;;;;;5069015;28;20048;-89
2022/09/07 06:56:08;;;;;;;0.60;0.60;;;18.20;99.90;;;;;;5067109;28;20104;-87
2022/09/07 06:58:34;;;;;;;0.40;0.40;;;18.20;99.90;;;;;;5061661;28;20043;-85
2022/09/07 07:01:22;;;;;;;0.40;0.40;;;18.20;99.90;;;;;;5066588;28;20068;-86
2022/09/07 07:03:49;;;;;;;0.40;0.40;;;18.30;99.90;;;;;;5031750;28;20055;-89
2022/09/07 07:06:15;;;;;;;0.40;0.40;;;18.30;99.90;;;;;;5047821;28;20051;-86
2022/09/07 07:08:41;;;;;;;0.40;0.40;;;18.30;99.90;;;;;;5044477;28;20044;-86
2022/09/07 07:11:10;;;;;;;0.30;0.30;;;18.40;99.90;;;;;;5072437;28;20043;-87
2022/09/07 07:13:37;;;;;;;2.15;2.05;;;18.50;99.90;;;;;;5046427;28;20043;-85
2022/09/07 07:16:08;;;;;;;0.32;0.32;;;18.60;99.90;;;;;;5066811;28;20092;-89
2022/09/07 07:18:34;;;;;;;0.30;0.30;;;18.50;99.90;;;;;;5066501;28;20064;-86
2022/09/07 07:21:18;;;;;;;0.30;0.30;;;18.60;99.90;;;;;;5065867;28;20043;-87
2022/09/07 07:23:48;;;;;;;0.40;0.40;;;18.70;99.90;;;;;;5051309;28;20039;-87
2022/09/07 07:26:16;;;;;;;0.40;0.40;;;18.70;99.90;;;;;;5039499;28;20075;-89
2022/09/07 07:29:00;;;;;;;0.40;0.40;;;18.60;99.90;;;;;;5061741;28;20028;-87
2022/09/07 07:31:26;;;;;;;0.40;0.40;;;18.60;99.90;;;;;;5058444;28;20052;-90
2022/09/07 07:34:02;;;;;;;0.40;0.40;;;18.60;99.90;;;;;;5073579;28;20040;-87
2022/09/07 07:36:29;;;;;;;0.40;0.40;;;18.50;99.90;;;;;;5064442;28;20062;-86
2022/09/07 07:38:56;;;;;;;0.40;0.40;;;18.50;99.90;;;;;;5067529;28;20063;-88
2022/09/07 07:41:25;;;;;;;0.40;0.40;;;18.50;99.90;;;;;;5063403;28;20188;-85
2022/09/07 07:43:55;;;;;;;0.30;0.30;;;18.50;99.90;;;;;;5063553;28;20048;-87
2022/09/07 07:46:23;;;;;;;0.40;0.40;;;18.60;99.90;;;;;;5062179;28;20043;-88
2022/09/07 07:48:48;;;;;;;0.40;0.40;;;18.60;99.90;;;;;;5063171;28;20084;-86
2022/09/07 07:51:14;;;;;;;0.40;0.40;;;18.50;99.90;;;;;;5062137;28;20770;-85
2022/09/07 07:53:40;;;;;;;0.30;0.30;;;18.60;99.90;;;;;;5065093;28;20058;-84
2022/09/07 07:56:08;;;;;;;0.38;0.38;;;18.60;99.90;;;;;;5048392;28;20046;-84
2022/09/07 07:58:35;;;;;;;0.40;0.40;;;18.60;99.90;;;;;;5046404;28;20036;-85
2022/09/07 08:01:07;;;;;;;0.40;0.40;;;18.70;99.90;;;;;;5063719;28;20039;-85
2022/09/07 08:03:38;;;;;;;0.30;0.30;;;18.80;99.90;;;;;;5060656;28;20100;-85
2022/09/07 08:06:08;;;;;;;0.38;0.38;;;18.80;99.90;;;;;;5060286;28;20077;-84
2022/09/07 08:08:35;;;;;;;0.30;0.30;;;18.90;99.90;;;;;;5075158;28;20128;-82
2022/09/07 08:11:03;;;;;;;0.40;0.40;;;19.00;99.90;;;;;;5055118;28;20134;-85
2022/09/07 08:13:32;;;;;;;0.40;0.40;;;19.10;99.90;;;;;;5066457;28;20110;-84
2022/09/07 08:15:58;;;;;;;0.30;0.30;;;19.20;99.90;;;;;;5049968;28;20044;-84
2022/09/07 08:18:24;;;;;;;0.32;0.32;;;19.30;99.90;;;;;;5051601;28;20047;-87
2022/09/07 08:20:49;;;;;;;0.40;0.40;;;19.40;99.90;;;;;;5067373;28;20051;-85
2022/09/07 08:23:16;;;;;;;0.40;0.40;;;19.60;99.90;;;;;;5063803;28;20039;-82
2022/09/07 08:25:53;;;;;;;0.40;0.40;;;19.90;99.90;;;;;;5066376;28;20052;-85
2022/09/07 08:28:20;;;;;;;0.40;0.40;;;20.00;99.90;;;;;;5064046;28;20396;-85
2022/09/07 08:30:46;;;;;;;0.40;0.40;;;20.00;99.90;;;;;;5064598;28;20144;-84
2022/09/07 08:33:12;;;;;;;0.40;0.40;;;20.00;99.90;;;;;;5064574;28;20116;-85
2022/09/07 08:35:38;;;;;;;0.30;0.30;;;19.90;99.90;;;;;;5067363;28;20138;-85
2022/09/07 08:38:04;;;;;;;0.30;0.30;;;20.10;99.90;;;;;;5062071;28;20082;-83
2022/09/07 08:40:34;;;;;;;0.40;0.40;;;20.10;99.90;;;;;;5063429;28;20075;-83
2022/09/07 08:43:26;;;;;;;0.30;0.30;;;20.10;99.90;;;;;;5063328;28;20052;-84
2022/09/07 08:46:02;;;;;;;0.32;0.32;;;20.10;99.90;;;;;;5081459;28;20059;-85
2022/09/07 08:48:33;;;;;;;0.40;0.40;;;20.10;99.90;;;;;;5060933;28;20115;-83
2022/09/07 08:51:11;;;;;;;0.30;0.30;;;20.00;99.90;;;;;;5064553;28;20124;-85
2022/09/07 08:53:44;;;;;;;0.40;0.40;;;20.10;99.90;;;;;;5062895;28;20053;-85
2022/09/07 08:56:36;;;;;;;0.40;0.40;;;20.20;99.90;;;;;;5060633;28;20048;-85
2022/09/07 08:59:24;;;;;;;0.40;0.40;;;20.40;99.90;;;;;;5038988;28;21571;-85
2022/09/07 09:01:50;;;;;;;0.30;0.30;;;20.50;99.90;;;;;;5064514;28;20043;-84
2022/09/07 09:04:34;;;;;;;0.30;0.30;;;20.70;99.90;;;;;;5050518;28;20104;-85
2022/09/07 09:07:06;;;;;;;0.40;0.40;;;20.70;99.90;;;;;;5058655;28;20485;-88
2022/09/07 09:09:57;;;;;;;0.30;0.30;;;20.60;99.90;;;;;;5024061;28;20040;-85
2022/09/07 09:12:47;;;;;;;0.40;0.40;;;20.60;99.90;;;;;;5055266;28;20499;-84
2022/09/07 09:15:31;;;;;;;0.40;0.40;;;20.60;99.90;;;;;;5081633;28;20081;-88
2022/09/07 09:18:06;;;;;;;0.30;0.30;;;20.50;99.90;;;;;;5046597;28;20150;-85
2022/09/07 09:21:06;;;;;;;0.30;0.30;;;20.50;99.90;;;;;;5045815;28;20126;-86
2022/09/07 09:23:40;;;;;;;0.40;0.40;;;20.40;99.90;;;;;;5065831;28;20391;-84
2022/09/07 09:26:24;;;;;;;0.40;0.40;;;20.40;99.90;;;;;;5062229;28;20714;-85
2022/09/07 09:28:50;;;;;;;0.38;0.38;;;20.40;99.90;;;;;;5047675;28;20464;-83
2022/09/07 09:31:19;;;;;;;0.40;0.40;;;20.40;99.90;;;;;;5044894;28;20052;-84
2022/09/07 09:34:04;;;;;;;0.30;0.30;;;20.50;99.90;;;;;;5069227;28;20504;-83
2022/09/07 09:36:39;;;;;;;0.40;0.40;;;20.70;99.90;;;;;;5069875;28;20039;-85
2022/09/07 09:39:32;;;;;;;0.30;0.30;;;20.80;99.90;;;;;;5067455;28;20063;-84
2022/09/07 09:42:13;;;;;;;0.30;0.30;;;20.90;99.90;;;;;;5068056;28;20496;-83
2022/09/07 09:44:39;;;;;;;0.30;0.30;;;21.10;99.90;;;;;;5066286;28;20055;-85
2022/09/07 09:47:16;;;;;;;0.40;0.40;;;21.10;99.90;;;;;;5050418;28;20052;-86
2022/09/07 09:49:44;;;;;;;0.30;0.30;;;21.00;99.90;;;;;;5051362;28;20163;-82
2022/09/07 09:52:18;;;;;;;0.30;0.30;;;21.10;99.90;;;;;;5068349;28;20051;-87
2022/09/07 09:54:49;;;;;;;0.40;0.40;;;21.10;99.90;;;;;;5067817;28;20039;-86
2022/09/07 09:57:47;;;;;;;0.30;0.30;;;21.20;99.90;;;;;;5070000;28;20126;-89
2022/09/07 10:00:16;;;;;;;0.30;0.30;;;21.50;99.90;;;;;;5069919;28;20090;-84
2022/09/07 10:03:14;;;;;;;0.40;0.40;;;21.70;99.90;;;;;;5073525;28;20510;-89
2022/09/07 10:05:43;;;;;;;0.30;0.30;;;21.70;99.90;;;;;;5070686;28;20047;-84
2022/09/07 10:08:23;;;;;;;0.35;0.35;;;21.60;99.90;;;;;;5049495;28;20469;-84
2022/09/07 10:11:07;;;;;;;0.40;0.40;;;21.60;99.90;;;;;;5064964;28;20047;-83
2022/09/07 10:14:03;;;;;;;0.30;0.30;;;21.60;99.90;;;;;;5079406;28;20067;-83
2022/09/07 10:16:41;;;;;;;0.40;0.40;;;21.50;99.90;;;;;;5054321;28;20047;-86
2022/09/07 10:19:29;;;;;;;0.40;0.40;;;21.60;99.90;;;;;;5054117;28;20047;-86
2022/09/07 10:22:04;;;;;;;0.30;0.30;;;21.80;99.90;;;;;;5085738;28;20048;-85
2022/09/07 10:24:39;;;;;;;0.30;0.30;;;21.80;99.90;;;;;;5068045;28;20086;-85
2022/09/07 10:27:33;;;;;;;0.40;0.40;;;21.90;99.90;;;;;;5050818;28;20039;-83
2022/09/07 10:30:00;;;;;;;0.30;0.30;;;21.80;99.90;;;;;;5067596;28;20501;-83
2022/09/07 10:32:37;;;;;;;0.40;0.40;;;21.70;99.90;;;;;;5051357;28;20377;-83
2022/09/07 10:35:21;;;;;;;0.40;0.40;;;21.60;99.90;;;;;;5066384;28;20051;-85
2022/09/07 10:38:32;;;;;;;0.30;0.30;;;21.60;99.90;;;;;;5067459;28;20105;-82
2022/09/07 10:41:08;;;;;;;0.50;0.50;;;21.50;99.90;;;;;;4954982;28;20054;-84
2022/09/07 10:43:34;;;;;;;0.40;0.40;;;21.80;99.90;;;;;;5053206;28;20891;-83
2022/09/07 10:46:34;;;;;;;0.40;0.40;;;22.10;99.90;;;;;;5067895;28;20076;-81
2022/09/07 10:49:35;;;;;;;0.40;0.40;;;22.10;99.90;;;;;;5061669;28;20082;-83
2022/09/07 10:52:17;;;;;;;0.40;0.40;;;22.20;99.90;;;;;;5067812;28;20044;-82
2022/09/07 10:54:51;;;;;;;0.30;0.30;;;22.20;99.90;;;;;;5069149;28;20062;-83
2022/09/07 10:57:35;;;;;;;0.30;0.30;;;22.30;99.90;;;;;;5084746;28;20050;-82
2022/09/07 11:00:05;;;;;;;0.30;0.30;;;22.60;99.90;;;;;;5068528;28;20175;-85
2022/09/07 11:02:37;;;;;;;0.30;0.30;;;22.60;99.90;;;;;;5067738;28;20154;-83
2022/09/07 11:05:30;;;;;;;0.30;0.30;;;22.70;99.90;;;;;;5065218;28;20778;-82
2022/09/07 11:08:03;;;;;;;0.30;0.30;;;22.70;99.90;;;;;;5066545;28;20036;-83
2022/09/07 11:10:32;;;;;;;0.40;0.40;;;22.90;99.90;;;;;;5083730;28;20050;-83
2022/09/07 11:13:01;;;;;;;0.30;0.30;;;23.50;99.90;;;;;;5067288;28;20126;-86
2022/09/07 11:15:36;;;;;;;0.30;0.30;;;24.00;99.90;;;;;;5065959;28;20119;-85
2022/09/07 11:18:13;;;;;;;0.30;0.30;;;24.20;99.90;;;;;;5069180;28;20055;-83
2022/09/07 11:20:57;;;;;;;0.30;0.30;;;24.00;99.90;;;;;;5066459;28;20051;-83
2022/09/07 11:23:42;;;;;;;0.30;0.30;;;24.00;99.90;;;;;;5066250;28;20047;-83
2022/09/07 11:26:24;;;;;;;0.30;0.30;;;23.70;99.90;;;;;;5069077;28;20074;-82
2022/09/07 11:29:01;;;;;;;0.30;0.30;;;23.90;99.90;;;;;;5065076;28;21193;-82
2022/09/07 11:31:33;;;;;;;0.30;0.30;;;24.20;99.90;;;;;;5066317;28;20055;-82
2022/09/07 11:34:01;;;;;;;0.30;0.30;;;24.70;99.90;;;;;;5066713;28;20177;-83
2022/09/07 11:36:32;;;;;;;0.30;0.30;;;25.00;99.90;;;;;;5050459;28;20044;-83
2022/09/07 11:39:10;;;;;;;0.30;0.30;;;24.80;99.90;;;;;;5047019;28;20159;-83
2022/09/07 11:41:40;;;;;;;0.30;0.30;;;25.20;99.90;;;;;;5042078;28;20456;-83
2022/09/07 11:44:23;;;;;;;0.30;0.30;;;25.30;99.90;;;;;;5055816;28;20048;-82
2022/09/07 11:47:15;;;;;;;0.30;0.30;;;25.60;99.90;;;;;;5064278;28;20879;-83
2022/09/07 11:49:40;;;;;;;0.30;0.30;;;25.50;99.90;;;;;;5044981;28;20044;-83
2022/09/07 11:52:33;;;;;;;0.30;0.30;;;25.80;99.90;;;;;;5029386;28;20048;-85
2022/09/07 11:55:04;;;;;;;0.30;0.30;;;25.70;99.90;;;;;;5035023;28;20604;-83
2022/09/07 11:57:48;;;;;;;0.30;0.30;;;25.80;99.90;;;;;;5043961;28;20055;-82
2022/09/07 12:00:21;;;;;;;0.38;0.38;;;26.10;99.90;;;;;;5046758;28;20059;-81
2022/09/07 12:03:14;;;;;;;0.30;0.30;;;25.80;99.90;;;;;;5066014;28;20059;-81
2022/09/07 12:06:44;;;;;;;0.30;0.30;;;25.40;99.90;;;;;;5055886;28;20095;-83
2022/09/07 12:09:54;;;;;;;0.30;0.30;;;25.30;99.90;;;;;;5006118;28;20055;-82
2022/09/07 12:12:46;;;;;;;0.30;0.30;;;25.50;99.90;;;;;;5031594;28;20048;-82
2022/09/07 12:15:15;;;;;;;0.30;0.30;;;25.90;99.90;;;;;;5043909;28;20056;-84
2022/09/07 12:18:05;;;;;;;0.30;0.30;;;26.20;99.90;;;;;;5028114;28;20311;-82
2022/09/07 12:20:42;;;;;;;0.30;0.30;;;26.40;99.90;;;;;;5044903;28;20043;-82
2022/09/07 12:23:14;;;;;;;0.30;0.30;;;26.30;99.90;;;;;;5045807;28;20109;-84
2022/09/07 12:25:45;;;;;;;0.30;0.30;;;25.60;99.90;;;;;;5046525;28;20043;-81
2022/09/07 12:28:34;;;;;;;0.30;0.30;;;25.30;99.90;;;;;;5044922;28;20054;-81
2022/09/07 12:31:03;;;;;;;0.30;0.30;;;25.40;99.90;;;;;;5006399;28;20059;-77
2022/09/07 12:33:32;;;;;;;0.30;0.30;;;25.00;99.90;;;;;;5044538;28;20075;-82
2022/09/07 12:35:59;;;;;;;0.30;0.30;;;25.30;99.90;;;;;;5043134;28;20508;-84
2022/09/07 12:39:10;;;;;;;0.30;0.30;;;26.10;99.90;;;;;;5062401;27;20161;-85
2022/09/07 12:41:49;;;;;;;0.35;0.35;;;26.40;99.90;;;;;;5084843;27;20480;-82
2022/09/07 12:44:20;;;;;;;0.30;0.30;;;26.30;99.90;;;;;;5100133;27;20046;-82
2022/09/07 12:46:49;;;;;;;0.30;0.30;;;26.70;99.90;;;;;;5086574;27;20051;-82
2022/09/07 12:49:41;;;;;;;0.30;0.30;;;26.90;99.90;;;;;;5101990;27;20047;-83
2022/09/07 12:52:44;;;;;;;0.30;0.30;;;26.50;99.90;;;;;;5103829;27;21718;-86
2022/09/07 12:55:23;;;;;;;0.30;0.30;;;26.90;99.90;;;;;;5070351;27;20066;-83
2022/09/07 12:58:10;;;;;;;0.30;0.30;;;26.90;99.90;;;;;;5080993;28;20086;-84
2022/09/07 13:00:57;;;;;;;0.30;0.30;;;26.90;99.90;;;;;;5067181;28;20126;-82
2022/09/07 13:04:02;;;;;;;0.30;0.30;;;26.80;99.90;;;;;;5083407;28;20393;-85
2022/09/07 13:06:34;;;;;;;0.30;0.30;;;27.00;99.90;;;;;;5001624;28;20051;-85
2022/09/07 13:09:31;;;;;;;0.30;0.30;;;27.20;99.90;;;;;;5083849;28;20071;-84
2022/09/07 13:11:59;;;;;;;0.30;0.30;;;27.00;99.90;;;;;;5073901;28;20043;-83
2022/09/07 13:14:27;;;;;;;0.30;0.30;;;27.30;99.90;;;;;;5071525;28;20107;-81
2022/09/07 13:17:30;;;;;;;0.20;0.20;;;27.20;99.90;;;;;;5092677;28;20035;-82
2022/09/07 13:19:56;;;;;;;0.30;0.30;;;27.00;99.90;;;;;;5075730;28;20103;-82